Time;durP1;ratioP1;P1;durP2;ratioP2;P2;SDS_P1;SDS_P2;PMS_P1;PMS_P2;Temp;Humidity;BMP_temperature;BMP_pressure;BME280_temperature;BME280_humidity;BME280_pressure;Samples;Min_cycle;Max_cycle;Signal;HPM_P1;HPM_P2
2021/04/24 00:02:10;;;;;;;5.00;2.17;;;;;;;5.70;53.13;100613.20;1767673;80;21144;-71
2021/04/24 00:04:38;;;;;;;6.58;2.52;;;;;;;5.71;53.26;100616.66;1750212;80;21575;-70
2021/04/24 00:07:09;;;;;;;6.10;2.70;;;;;;;5.69;53.32;100625.88;1745581;79;21175;-70
2021/04/24 00:09:37;;;;;;;5.17;2.20;;;;;;;5.63;53.36;100624.06;1787993;78;21254;-69
2021/04/24 00:12:05;;;;;;;7.10;2.37;;;;;;;5.61;53.42;100619.41;1783021;79;21185;-72
2021/04/24 00:14:33;;;;;;;6.15;2.75;;;;;;;5.60;53.38;100618.57;1779642;78;21176;-74
2021/04/24 00:17:00;;;;;;;8.10;2.95;;;;;;;5.59;53.33;100616.40;1774398;79;21176;-71
2021/04/24 00:19:29;;;;;;;6.97;2.65;;;;;;;5.62;53.33;100611.48;1751501;79;21191;-70
2021/04/24 00:21:57;;;;;;;5.12;2.05;;;;;;;5.61;53.38;100616.31;1774260;79;21163;-71
2021/04/24 00:24:25;;;;;;;6.20;2.47;;;;;;;5.59;53.54;100618.18;1787863;78;21198;-70
2021/04/24 00:26:52;;;;;;;5.40;2.27;;;;;;;5.56;53.73;100626.17;1797845;78;21157;-71
2021/04/24 00:29:21;;;;;;;5.22;2.15;;;;;;;5.53;53.88;100619.38;1756781;78;21167;-70
2021/04/24 00:31:49;;;;;;;5.85;2.47;;;;;;;5.49;54.09;100623.53;1785841;78;21144;-71
2021/04/24 00:34:17;;;;;;;6.67;2.75;;;;;;;5.41;54.40;100629.16;1779777;79;21184;-70
2021/04/24 00:36:44;;;;;;;6.35;2.50;;;;;;;5.32;54.68;100625.76;1794051;78;21176;-71
2021/04/24 00:39:11;;;;;;;6.12;2.80;;;;;;;5.24;54.73;100621.41;1786868;78;21112;-72
2021/04/24 00:41:39;;;;;;;5.35;2.37;;;;;;;5.24;54.86;100618.33;1770708;78;21333;-72
2021/04/24 00:44:06;;;;;;;6.22;2.60;;;;;;;5.28;55.00;100622.92;1756661;80;21192;-71
2021/04/24 00:46:34;;;;;;;5.62;2.30;;;;;;;5.29;55.12;100628.06;1777175;78;21588;-70
2021/04/24 00:49:01;;;;;;;5.58;2.65;;;;;;;5.29;55.47;100618.92;1757466;80;21159;-71
2021/04/24 00:51:31;;;;;;;6.47;2.35;;;;;;;5.27;55.58;100620.78;1804586;78;21144;-71
2021/04/24 00:53:58;;;;;;;6.30;3.25;;;;;;;5.25;55.78;100614.81;1739706;81;21208;-71
2021/04/24 00:56:25;;;;;;;8.05;3.27;;;;;;;5.25;55.99;100617.89;1785224;78;21187;-70
2021/04/24 00:58:54;;;;;;;5.78;2.58;;;;;;;5.24;56.18;100617.50;1815978;78;21172;-70
2021/04/24 01:01:21;;;;;;;6.25;2.40;;;;;;;5.24;56.39;100617.50;1783738;80;21136;-70
2021/04/24 01:03:49;;;;;;;5.30;2.35;;;;;;;5.20;56.38;100619.44;1769694;80;21093;-70
2021/04/24 01:06:17;;;;;;;6.12;2.22;;;;;;;5.14;56.59;100616.67;1784489;79;21130;-70
2021/04/24 01:08:44;;;;;;;5.40;2.10;;;;;;;5.09;56.83;100620.47;1792815;80;21175;-70
2021/04/24 01:11:12;;;;;;;6.08;2.70;;;;;;;4.98;57.15;100621.05;1762479;80;21207;-71
2021/04/24 01:13:41;;;;;;;9.58;2.35;;;;;;;4.86;57.54;100617.77;1823586;78;21301;-70
2021/04/24 01:16:08;;;;;;;5.20;2.35;;;;;;;4.77;57.79;100623.83;1772186;78;21156;-71
2021/04/24 01:18:38;;;;;;;5.30;2.30;;;;;;;4.71;57.89;100621.56;1799017;77;21128;-71
2021/04/24 01:21:06;;;;;;;4.25;1.75;;;;;;;4.65;58.03;100614.89;1775768;78;21148;-71
2021/04/24 01:23:34;;;;;;;5.60;2.12;;;;;;;4.63;58.33;100613.30;1773263;78;21204;-71
2021/04/24 01:26:02;;;;;;;6.50;2.22;;;;;;;4.58;58.37;100613.52;1798616;78;21088;-70
2021/04/24 01:28:30;;;;;;;5.20;2.40;;;;;;;4.54;58.68;100609.41;1773637;80;21548;-71
2021/04/24 01:30:57;;;;;;;5.37;1.90;;;;;;;4.53;58.89;100606.41;1786638;80;21560;-71
2021/04/24 01:33:26;;;;;;;5.62;2.25;;;;;;;4.53;59.14;100621.20;1754464;80;21114;-72
2021/04/24 01:35:53;;;;;;;5.03;1.95;;;;;;;4.51;59.21;100621.75;1797136;78;21205;-71
2021/04/24 01:38:20;;;;;;;4.62;1.77;;;;;;;4.48;59.36;100620.13;1767820;79;21175;-71
2021/04/24 01:40:48;;;;;;;6.85;2.35;;;;;;;4.44;59.69;100619.92;1765027;78;21171;-70
2021/04/24 01:43:16;;;;;;;6.20;2.08;;;;;;;4.40;59.73;100611.86;1769939;78;21570;-70
2021/04/24 01:45:43;;;;;;;4.15;1.35;;;;;;;4.40;59.92;100608.78;1783945;78;22349;-71
2021/04/24 01:48:10;;;;;;;5.20;2.02;;;;;;;4.51;59.86;100612.63;1792127;78;21606;-71
2021/04/24 01:51:02;;;;;;;4.33;1.77;;;;;;;4.62;59.69;100613.77;1772988;78;21758;-71
2021/04/24 01:53:30;;;;;;;4.90;1.77;;;;;;;4.69;59.60;100619.51;1701809;83;21199;-70
2021/04/24 01:56:00;;;;;;;6.37;2.33;;;;;;;4.69;59.68;100618.20;1683321;83;21783;-70
2021/04/24 01:58:29;;;;;;;5.62;1.98;;;;;;;4.70;59.82;100620.34;1678807;83;21229;-69
2021/04/24 02:01:01;;;;;;;5.92;1.90;;;;;;;4.73;59.83;100611.06;1691253;83;21207;-70
2021/04/24 02:03:30;;;;;;;6.15;1.87;;;;;;;4.70;60.19;100614.66;1672833;84;21209;-70
2021/04/24 02:05:57;;;;;;;5.03;1.92;;;;;;;4.63;60.32;100619.34;1677133;84;21160;-70
2021/04/24 02:08:41;;;;;;;4.92;1.90;;;;;;;4.55;60.51;100617.59;1671159;84;21185;-71
2021/04/24 02:11:11;;;;;;;5.05;1.70;;;;;;;4.48;60.81;100619.30;1689940;84;22355;-71
2021/04/24 02:13:41;;;;;;;4.75;1.70;;;;;;;4.39;60.92;100618.01;1673894;84;21373;-71
2021/04/24 02:16:12;;;;;;;6.05;1.67;;;;;;;4.33;61.18;100619.61;1671538;84;21233;-71
2021/04/24 02:18:44;;;;;;;4.72;1.70;;;;;;;4.26;61.44;100620.37;1674603;85;21198;-71
2021/04/24 02:21:13;;;;;;;4.40;1.70;;;;;;;4.21;61.69;100623.20;1674760;83;21453;-69
2021/04/24 02:23:44;;;;;;;6.42;1.95;;;;;;;4.16;62.09;100618.68;1674953;85;21228;-70
2021/04/24 02:26:14;;;;;;;6.35;1.80;;;;;;;4.22;62.06;100620.98;1675756;84;21300;-70
2021/04/24 02:28:43;;;;;;;5.70;2.47;;;;;;;4.37;61.92;100622.43;1675095;83;21619;-70
2021/04/24 02:31:13;;;;;;;4.40;2.00;;;;;;;4.49;61.67;100617.92;1672492;83;21176;-70
2021/04/24 02:33:43;;;;;;;5.83;2.55;;;;;;;4.53;61.39;100615.53;1679120;83;21349;-71
2021/04/24 02:36:13;;;;;;;5.17;2.00;;;;;;;4.54;61.30;100617.66;1675227;84;21184;-69
2021/04/24 02:38:50;;;;;;;6.45;2.15;;;;;;;4.54;61.32;100619.83;1679805;83;22497;-70
2021/04/24 02:41:19;;;;;;;6.20;2.30;;;;;;;4.55;61.25;100621.49;1665470;84;21196;-70
2021/04/24 02:43:49;;;;;;;6.45;2.22;;;;;;;4.57;61.23;100619.68;1668905;85;21222;-69
2021/04/24 02:46:18;;;;;;;5.83;2.10;;;;;;;4.55;61.30;100612.84;1662223;85;21855;-70
2021/04/24 02:48:46;;;;;;;4.60;1.92;;;;;;;4.56;61.40;100617.98;1669540;85;21216;-70
2021/04/24 02:51:15;;;;;;;10.45;2.02;;;;;;;4.58;61.43;100627.02;1671637;85;21414;-70
2021/04/24 02:53:42;;;;;;;7.53;2.37;;;;;;;4.58;61.63;100634.38;1670234;84;21187;-71
2021/04/24 02:56:13;;;;;;;6.33;2.17;;;;;;;4.55;61.75;100636.30;1674124;85;21195;-70
2021/04/24 02:58:43;;;;;;;5.25;1.87;;;;;;;4.51;61.84;100640.83;1644953;84;21146;-69
2021/04/24 03:01:13;;;;;;;7.10;2.20;;;;;;;4.47;61.80;100635.38;1666164;85;21202;-70
2021/04/24 03:03:41;;;;;;;5.65;2.12;;;;;;;4.48;61.84;100634.94;1672212;84;22206;-72
2021/04/24 03:06:10;;;;;;;4.97;1.80;;;;;;;4.47;62.03;100636.67;1669487;84;21237;-70
2021/04/24 03:08:39;;;;;;;4.60;2.02;;;;;;;4.53;62.16;100638.15;1674356;84;21482;-68
2021/04/24 03:11:08;;;;;;;5.05;1.70;;;;;;;4.68;62.10;100641.73;1671418;84;21153;-64
2021/04/24 03:13:35;;;;;;;4.42;1.77;;;;;;;4.80;61.83;100642.41;1689387;83;21635;-69
2021/04/24 03:16:05;;;;;;;6.17;2.17;;;;;;;4.84;61.69;100643.91;1666429;84;21174;-68
2021/04/24 03:18:33;;;;;;;4.40;1.50;;;;;;;4.82;61.76;100641.41;1677851;84;21200;-69
2021/04/24 03:21:02;;;;;;;4.95;2.20;;;;;;;4.81;61.49;100638.41;1695960;83;21155;-70
2021/04/24 03:23:30;;;;;;;5.05;2.10;;;;;;;4.77;61.49;100647.77;1682382;84;21175;-71
2021/04/24 03:26:00;;;;;;;7.15;2.08;;;;;;;4.72;61.50;100645.86;1662874;84;21149;-71
2021/04/24 03:28:29;;;;;;;5.17;1.90;;;;;;;4.67;61.68;100653.08;1676038;84;21235;-70
2021/04/24 03:30:58;;;;;;;4.33;1.75;;;;;;;4.58;62.01;100652.62;1669459;84;21184;-70
2021/04/24 03:33:25;;;;;;;5.83;2.30;;;;;;;4.53;62.31;100655.09;1646072;86;21614;-70
2021/04/24 03:35:55;;;;;;;5.33;2.10;;;;;;;4.50;62.61;100663.89;1666885;84;21162;-69
2021/04/24 03:38:25;;;;;;;5.03;1.85;;;;;;;4.46;63.00;100651.48;1683475;83;21252;-69
2021/04/24 03:40:54;;;;;;;5.53;1.72;;;;;;;4.46;63.04;100655.38;1688203;83;21277;-69
2021/04/24 03:43:24;;;;;;;6.15;1.90;;;;;;;4.55;62.97;100659.75;1702087;83;21270;-69
2021/04/24 03:45:53;;;;;;;5.55;1.82;;;;;;;4.72;62.55;100664.94;1699260;83;21201;-70
2021/04/24 03:48:23;;;;;;;3.70;1.25;;;;;;;4.81;62.22;100659.27;1633452;84;21175;-70
2021/04/24 03:50:53;;;;;;;3.58;1.42;;;;;;;4.84;62.27;100657.81;1675777;84;21425;-70
2021/04/24 03:53:21;;;;;;;3.77;1.55;;;;;;;4.89;62.22;100658.02;1672015;84;21253;-69
2021/04/24 03:55:50;;;;;;;4.65;1.35;;;;;;;4.93;62.13;100667.39;1656589;84;21673;-69
2021/04/24 03:58:19;;;;;;;4.35;1.90;;;;;;;4.95;61.93;100670.75;1670812;84;21160;-70
2021/04/24 04:00:47;;;;;;;4.97;1.65;;;;;;;4.93;61.79;100674.74;1699777;83;21173;-66
2021/04/24 04:03:15;;;;;;;5.62;2.45;;;;;;;4.88;61.46;100671.53;1669404;84;21673;-69
2021/04/24 04:05:44;;;;;;;4.90;2.10;;;;;;;4.83;61.62;100680.05;1647683;86;21511;-70
2021/04/24 04:08:14;;;;;;;4.87;2.22;;;;;;;4.83;61.93;100683.96;1654849;85;21235;-70
2021/04/24 04:10:44;;;;;;;4.90;2.10;;;;;;;4.83;61.92;100689.18;1685820;83;21200;-70
2021/04/24 04:13:14;;;;;;;6.90;2.00;;;;;;;4.79;62.22;100680.67;1684504;83;21226;-71
2021/04/24 04:15:44;;;;;;;5.22;1.82;;;;;;;4.85;62.17;100683.42;1676388;83;21270;-69
2021/04/24 04:18:15;;;;;;;7.17;2.72;;;;;;;4.98;61.98;100681.86;1676760;85;21221;-68
2021/04/24 04:20:47;;;;;;;10.05;5.12;;;;;;;5.09;61.71;100686.98;1658597;83;21267;-69
2021/04/24 04:23:18;;;;;;;15.43;9.23;;;;;;;5.15;61.23;100697.94;1668629;85;21172;-71
2021/04/24 04:25:49;;;;;;;10.65;5.65;;;;;;;5.18;61.11;100698.25;1681954;83;21162;-72
2021/04/24 04:28:18;;;;;;;9.15;3.40;;;;;;;5.15;60.81;100705.77;1672451;83;21216;-67
2021/04/24 04:30:47;;;;;;;9.05;3.52;;;;;;;5.15;60.86;100706.23;1679431;84;21701;-70
2021/04/24 04:33:17;;;;;;;5.67;1.67;;;;;;;5.20;60.93;100706.83;1681491;83;21385;-68
2021/04/24 04:35:46;;;;;;;5.47;1.70;;;;;;;5.27;60.71;100700.36;1655308;85;21170;-66
2021/04/24 04:38:14;;;;;;;5.55;1.72;;;;;;;5.33;60.75;100707.87;1675478;83;21243;-66
2021/04/24 04:40:44;;;;;;;4.37;1.47;;;;;;;5.40;60.67;100701.87;1668797;83;21186;-71
2021/04/24 04:43:13;;;;;;;3.70;1.57;;;;;;;5.48;59.99;100718.41;1681726;83;21392;-66
2021/04/24 04:45:43;;;;;;;4.47;1.67;;;;;;;5.44;60.02;100707.30;1679735;83;21868;-69
2021/04/24 04:48:12;;;;;;;6.67;2.05;;;;;;;5.44;60.04;100707.77;1694833;83;21219;-71
2021/04/24 04:50:41;;;;;;;4.90;1.98;;;;;;;5.42;60.06;100705.70;1670265;84;21219;-71
2021/04/24 04:53:12;;;;;;;4.83;1.60;;;;;;;5.42;60.11;100693.96;1661150;84;21268;-69
2021/04/24 04:55:40;;;;;;;5.00;2.15;;;;;;;5.45;59.94;100698.55;1689526;84;21684;-69
2021/04/24 04:58:08;;;;;;;4.67;2.10;;;;;;;5.58;59.98;100687.83;1672021;84;21815;-67
2021/04/24 05:00:37;;;;;;;7.33;1.80;;;;;;;5.80;59.51;100694.94;1659645;85;21258;-68
2021/04/24 05:03:05;;;;;;;4.92;1.60;;;;;;;5.92;59.15;100692.50;1666377;84;21241;-69
2021/04/24 05:05:34;;;;;;;4.72;1.82;;;;;;;5.97;58.52;100701.42;1639205;85;21178;-70
2021/04/24 05:08:04;;;;;;;4.90;2.05;;;;;;;5.97;58.70;100709.70;1649876;85;21507;-73
2021/04/24 05:10:33;;;;;;;4.40;1.50;;;;;;;5.95;58.64;100717.59;1680384;84;21187;-74
2021/04/24 05:13:04;;;;;;;6.58;1.67;;;;;;;5.94;58.66;100719.84;1700342;84;21667;-73
2021/04/24 05:15:34;;;;;;;5.37;2.05;;;;;;;5.97;58.86;100720.15;1679897;84;21167;-71
2021/04/24 05:18:04;;;;;;;4.15;1.87;;;;;;;5.97;59.23;100721.45;1677630;84;21180;-72
2021/04/24 05:20:33;;;;;;;3.77;1.50;;;;;;;5.98;59.21;100729.20;1670052;84;21186;-72
2021/04/24 05:23:01;;;;;;;3.95;1.25;;;;;;;5.97;58.65;100730.16;1703142;83;21661;-74
2021/04/24 05:25:30;;;;;;;5.05;1.60;;;;;;;5.85;58.73;100735.56;1668398;85;21249;-71
2021/04/24 05:28:00;;;;;;;6.65;1.20;;;;;;;5.74;58.93;100741.82;1678701;83;21244;-72
2021/04/24 05:30:28;;;;;;;3.77;1.45;;;;;;;5.67;59.63;100731.34;1676063;84;21150;-71
2021/04/24 05:32:57;;;;;;;3.27;1.10;;;;;;;5.70;60.35;100715.04;1671552;84;21397;-72
2021/04/24 05:35:26;;;;;;;4.67;1.30;;;;;;;5.83;59.30;100720.88;1675777;85;21246;-71
2021/04/24 05:37:55;;;;;;;3.05;1.47;;;;;;;5.86;58.80;100714.19;1677954;84;21151;-72
2021/04/24 05:40:26;;;;;;;2.70;0.95;;;;;;;5.86;58.33;100725.95;1672531;84;21162;-71
2021/04/24 05:42:56;;;;;;;4.15;1.22;;;;;;;5.88;58.14;100721.47;1684900;83;21203;-74
2021/04/24 05:45:25;;;;;;;4.05;1.40;;;;;;;5.92;57.96;100712.09;1695061;83;21492;-74
2021/04/24 05:47:53;;;;;;;2.47;0.80;;;;;;;6.00;57.30;100711.70;1665427;84;21747;-76
2021/04/24 05:50:24;;;;;;;3.08;1.02;;;;;;;6.06;56.95;100720.48;1677374;84;21187;-70
2021/04/24 05:52:54;;;;;;;2.90;1.20;;;;;;;6.09;56.76;100696.81;1671956;84;21203;-59
2021/04/24 05:55:23;;;;;;;3.52;0.98;;;;;;;6.17;56.99;100704.67;1664196;84;21245;-74
2021/04/24 05:57:51;;;;;;;4.25;1.47;;;;;;;6.26;56.53;100702.38;1671887;84;21988;-67
2021/04/24 06:00:24;;;;;;;4.53;1.32;;;;;;;6.33;56.16;100701.09;1674173;84;21234;-68
2021/04/24 06:02:53;;;;;;;3.60;1.25;;;;;;;6.41;55.45;100698.53;1679246;84;21175;-73
2021/04/24 06:05:22;;;;;;;3.45;1.27;;;;;;;6.43;54.95;100701.41;1630394;86;21243;-74
2021/04/24 06:07:50;;;;;;;3.40;1.20;;;;;;;6.43;55.29;100700.11;1647819;85;21213;-68
2021/04/24 06:10:19;;;;;;;3.95;1.65;;;;;;;6.44;55.04;100703.11;1655446;84;22968;-67
2021/04/24 06:12:47;;;;;;;4.65;1.50;;;;;;;6.50;55.12;100717.59;1657837;85;21268;-70
2021/04/24 06:15:18;;;;;;;8.18;1.55;;;;;;;6.49;54.76;100711.53;1660131;85;21140;-68
2021/04/24 06:17:47;;;;;;;5.47;1.45;;;;;;;6.42;55.17;100731.56;1669609;84;21601;-72
2021/04/24 06:20:18;;;;;;;3.40;1.10;;;;;;;6.36;55.10;100721.00;1678304;84;21244;-69
2021/04/24 06:22:46;;;;;;;4.33;1.67;;;;;;;6.34;55.45;100721.56;1654445;84;21247;-71
2021/04/24 06:25:17;;;;;;;3.90;1.52;;;;;;;6.36;55.38;100723.62;1677736;84;21239;-64
2021/04/24 06:27:46;;;;;;;5.12;1.70;;;;;;;6.37;54.99;100728.37;1675250;84;21210;-69
2021/04/24 06:30:17;;;;;;;5.75;2.00;;;;;;;6.33;54.87;100719.39;1675035;84;21478;-67
2021/04/24 06:32:45;;;;;;;4.50;1.57;;;;;;;6.35;55.33;100723.70;1652896;85;21218;-66
2021/04/24 06:35:15;;;;;;;9.95;1.80;;;;;;;6.40;55.77;100719.88;1677566;84;21377;-69
2021/04/24 06:37:42;;;;;;;4.70;1.52;;;;;;;6.43;54.78;100730.64;1680279;84;21207;-67
2021/04/24 06:40:13;;;;;;;11.38;1.77;;;;;;;6.40;54.66;100719.88;1678198;84;21571;-63
2021/04/24 06:42:42;;;;;;;8.45;2.00;;;;;;;6.41;55.09;100716.83;1675558;84;21136;-63
2021/04/24 06:45:13;;;;;;;5.37;1.50;;;;;;;6.56;54.47;100734.23;1678775;84;21198;-65
2021/04/24 06:47:46;;;;;;;4.20;1.60;;;;;;;6.68;52.57;100714.38;1645787;86;21411;-62
2021/04/24 06:50:17;;;;;;;;;;;;;;;6.67;52.61;100724.45;1679321;83;21255;-68
2021/04/24 06:52:45;;;;;;;5.65;1.60;;;;;;;6.70;53.06;100730.81;1657924;86;20510;-71
2021/04/24 06:55:17;;;;;;;3.95;1.40;;;;;;;6.65;51.46;100729.77;1679340;84;21240;-67
2021/04/24 06:57:46;;;;;;;4.25;1.42;;;;;;;6.66;51.45;100730.16;1678647;84;21151;-74
2021/04/24 07:00:15;;;;;;;4.37;1.60;;;;;;;6.67;50.55;100742.31;1676466;84;21254;-72
2021/04/24 07:02:44;;;;;;;5.20;1.67;;;;;;;6.73;51.28;100732.42;1670983;84;21202;-73
2021/04/24 07:05:14;;;;;;;2.85;1.10;;;;;;;6.82;49.47;100726.64;1696107;82;21203;-71
2021/04/24 07:07:45;;;;;;;4.45;0.98;;;;;;;6.92;44.84;100732.18;1675494;84;21497;-74
2021/04/24 07:10:16;;;;;;;4.45;1.40;;;;;;;7.03;44.96;100746.30;1672987;85;21212;-69
2021/04/24 07:12:46;;;;;;;3.55;0.98;;;;;;;7.11;45.23;100725.37;1674554;84;21428;-72
2021/04/24 07:15:16;;;;;;;3.27;1.00;;;;;;;7.18;45.42;100717.08;1670032;84;21207;-69
2021/04/24 07:17:44;;;;;;;3.35;0.78;;;;;;;7.28;45.48;100736.13;1675624;84;21174;-70
2021/04/24 07:20:13;;;;;;;2.20;0.98;;;;;;;7.31;44.26;100747.25;1673457;84;21190;-74
2021/04/24 07:22:43;;;;;;;2.92;0.90;;;;;;;7.33;42.24;100723.16;1672551;84;21226;-70
2021/04/24 07:25:13;;;;;;;2.62;0.90;;;;;;;7.40;42.65;100731.48;1673064;84;22351;-70
2021/04/24 07:27:42;;;;;;;2.87;0.80;;;;;;;7.44;41.09;100741.64;1677124;84;21202;-72
2021/04/24 07:30:13;;;;;;;2.95;0.95;;;;;;;7.46;42.08;100724.53;1673978;84;21180;-69
2021/04/24 07:32:42;;;;;;;2.47;0.60;;;;;;;7.55;41.26;100727.08;1675648;84;21594;-74
2021/04/24 07:35:12;;;;;;;3.80;0.80;;;;;;;7.61;40.71;100732.75;1675445;84;21182;-65
2021/04/24 07:37:42;;;;;;;2.42;0.68;;;;;;;7.70;38.70;100731.80;1676999;84;22794;-73
2021/04/24 07:40:13;;;;;;;3.92;0.68;;;;;;;7.74;39.18;100735.94;1673054;84;21630;-69
2021/04/24 07:42:42;;;;;;;2.67;0.78;;;;;;;7.78;39.21;100734.79;1675077;84;21166;-73
2021/04/24 07:45:13;;;;;;;2.20;0.60;;;;;;;7.75;39.61;100729.73;1669770;84;21130;-70
2021/04/24 07:47:44;;;;;;;2.90;0.50;;;;;;;7.72;40.07;100727.34;1671019;84;21191;-71
2021/04/24 07:50:17;;;;;;;3.47;0.70;;;;;;;7.73;40.00;100731.17;1673288;84;21291;-69
2021/04/24 07:52:46;;;;;;;1.82;0.53;;;;;;;7.75;38.94;100727.12;1675292;84;21198;-64
2021/04/24 07:55:14;;;;;;;7.40;0.80;;;;;;;7.86;39.29;100728.60;1683995;83;21187;-67
2021/04/24 07:57:42;;;;;;;1.50;0.40;;;;;;;8.00;38.22;100735.13;1661696;84;21235;-69
2021/04/24 08:00:13;;;;;;;3.92;0.95;;;;;;;8.10;37.12;100746.33;1665848;84;21135;-72
2021/04/24 08:02:43;;;;;;;2.75;0.62;;;;;;;8.06;36.83;100751.41;1669789;85;21232;-74
2021/04/24 08:05:13;;;;;;;2.45;0.68;;;;;;;8.01;36.45;100735.97;1662824;84;21233;-72
2021/04/24 08:07:44;;;;;;;2.10;0.60;;;;;;;7.94;35.56;100737.30;1656512;84;21246;-73
2021/04/24 08:10:14;;;;;;;2.47;0.60;;;;;;;7.87;36.31;100744.70;1685304;83;21247;-71
2021/04/24 08:12:42;;;;;;;1.30;0.33;;;;;;;7.81;36.79;100744.61;1686309;83;21175;-74
2021/04/24 08:15:12;;;;;;;1.57;0.50;;;;;;;7.89;36.00;100728.89;1684074;83;22221;-68
2021/04/24 08:17:41;;;;;;;1.57;0.50;;;;;;;8.07;37.05;100721.62;1682635;83;21199;-73
2021/04/24 08:20:14;;;;;;;3.15;0.82;;;;;;;8.23;36.45;100719.70;1687007;83;21216;-69
2021/04/24 08:22:43;;;;;;;1.50;0.33;;;;;;;8.35;36.64;100724.16;1683232;83;21136;-69
2021/04/24 08:25:13;;;;;;;1.47;0.28;;;;;;;8.35;36.67;100754.31;1662440;84;21282;-68
2021/04/24 08:27:42;;;;;;;1.45;0.40;;;;;;;8.30;35.94;100747.67;1685606;84;21373;-69
2021/04/24 08:30:13;;;;;;;2.42;0.50;;;;;;;8.12;36.23;100748.38;1673646;83;21187;-72
2021/04/24 08:32:44;;;;;;;1.90;0.57;;;;;;;8.02;37.34;100747.28;1654038;85;21222;-65
2021/04/24 08:35:13;;;;;;;2.45;0.70;;;;;;;8.04;38.46;100742.33;1670172;84;21234;-70
2021/04/24 08:37:41;;;;;;;2.02;0.50;;;;;;;8.16;36.34;100742.02;1661381;84;21235;-72
2021/04/24 08:40:11;;;;;;;2.58;0.47;;;;;;;8.30;35.86;100726.21;1674612;84;21287;-69
2021/04/24 08:42:39;;;;;;;2.12;0.40;;;;;;;8.45;36.15;100732.28;1670946;84;21636;-72
2021/04/24 08:45:17;;;;;;;1.92;0.47;;;;;;;8.57;34.81;100735.87;1669548;84;21163;-72
2021/04/24 08:47:48;;;;;;;4.25;0.57;;;;;;;8.62;32.78;100736.89;1688412;83;21227;-71
2021/04/24 08:50:24;;;;;;;1.32;0.30;;;;;;;8.54;32.98;100731.69;1676069;85;21198;-70
2021/04/24 08:52:53;;;;;;;2.92;0.40;;;;;;;8.53;33.31;100727.38;1682142;83;21446;-70
2021/04/24 08:55:26;;;;;;;2.33;0.50;;;;;;;8.61;33.68;100725.56;1676804;84;21266;-71
2021/04/24 08:57:54;;;;;;;2.12;0.60;;;;;;;8.71;33.69;100720.07;1651789;84;21524;-68
2021/04/24 09:00:26;;;;;;;1.52;0.37;;;;;;;8.78;34.23;100736.72;1667910;85;21154;-68
2021/04/24 09:02:55;;;;;;;2.42;0.50;;;;;;;8.76;34.32;100743.38;1678744;84;21132;-74
2021/04/24 09:05:25;;;;;;;2.17;0.53;;;;;;;8.67;34.77;100738.25;1671375;85;21178;-72
2021/04/24 09:08:00;;;;;;;3.92;0.70;;;;;;;8.57;35.65;100773.91;1671075;84;21657;-71
2021/04/24 09:10:42;;;;;;;1.70;0.33;;;;;;;8.47;35.34;100763.65;1651325;84;22429;-74
2021/04/24 09:13:17;;;;;;;3.55;0.70;;;;;;;8.42;35.55;100748.66;1673216;85;21147;-72
2021/04/24 09:15:47;;;;;;;1.45;0.40;;;;;;;8.43;36.10;100759.56;1663750;85;21214;-77
2021/04/24 09:18:16;;;;;;;2.50;0.60;;;;;;;8.52;36.05;100728.33;1674983;84;21326;-72
2021/04/24 09:21:00;;;;;;;2.70;0.62;;;;;;;8.69;35.69;100734.22;1676654;84;21255;-71
2021/04/24 09:23:33;;;;;;;1.42;0.40;;;;;;;8.92;33.36;100733.52;1658384;84;21633;-73
2021/04/24 09:26:09;;;;;;;2.67;0.70;;;;;;;9.13;32.94;100734.34;1644686;85;21513;-74
2021/04/24 09:28:43;;;;;;;2.00;0.60;;;;;;;9.19;32.38;100738.31;1668323;84;21185;-73
2021/04/24 09:31:22;;;;;;;2.52;0.80;;;;;;;9.13;31.44;100745.29;1675077;84;21396;-72
2021/04/24 09:33:53;;;;;;;1.95;0.47;;;;;;;8.96;32.96;100745.98;1694772;84;21221;-73
2021/04/24 09:36:24;;;;;;;1.82;0.42;;;;;;;8.78;32.51;100742.80;1673706;84;21182;-72
2021/04/24 09:38:52;;;;;;;1.22;0.30;;;;;;;8.65;31.82;100757.20;1683218;84;21223;-71
2021/04/24 09:41:27;;;;;;;2.98;0.65;;;;;;;8.65;31.02;100759.82;1678583;84;21201;-74
2021/04/24 09:44:11;;;;;;;5.55;1.00;;;;;;;8.78;32.40;100740.66;1676341;85;22225;-73
2021/04/24 09:46:51;;;;;;;2.08;0.75;;;;;;;8.85;32.62;100747.17;1673191;84;21198;-73
2021/04/24 09:49:31;;;;;;;2.17;0.60;;;;;;;8.82;34.59;100767.88;1654628;85;21188;-72
2021/04/24 09:52:03;;;;;;;3.00;0.47;;;;;;;8.73;34.96;100758.84;1668957;84;21194;-71
2021/04/24 09:54:44;;;;;;;1.60;0.30;;;;;;;8.72;34.12;100757.62;1671642;84;22529;-73
2021/04/24 09:57:22;;;;;;;3.08;0.40;;;;;;;8.80;34.69;100754.52;1670356;84;22150;-71
2021/04/24 10:00:05;;;;;;;6.25;0.70;;;;;;;8.95;33.97;100748.23;1661596;84;21215;-74
2021/04/24 10:02:45;;;;;;;2.70;0.60;;;;;;;8.99;33.61;100747.06;1655823;84;21231;-74
2021/04/24 10:05:22;;;;;;;1.77;0.62;;;;;;;9.04;34.23;100760.72;1697330;84;21155;-76
2021/04/24 10:07:56;;;;;;;2.92;0.53;;;;;;;9.03;33.98;100754.29;1647466;84;21206;-73
2021/04/24 10:10:34;;;;;;;1.67;0.47;;;;;;;8.96;33.55;100805.48;1681913;84;21427;-74
2021/04/24 10:13:05;;;;;;;2.47;0.80;;;;;;;8.95;33.86;100758.73;1638116;84;21223;-74
2021/04/24 10:15:44;;;;;;;3.50;0.65;;;;;;;8.93;34.42;100763.25;1664172;84;21210;-73
2021/04/24 10:18:16;;;;;;;2.20;0.45;;;;;;;8.90;34.44;100764.28;1656731;84;21273;-71
2021/04/24 10:20:47;;;;;;;2.95;0.90;;;;;;;8.88;34.24;100764.03;1657356;86;21166;-65
2021/04/24 10:23:16;;;;;;;3.15;0.62;;;;;;;8.90;34.52;100768.70;1675100;83;21227;-69
2021/04/24 10:25:46;;;;;;;2.02;0.53;;;;;;;8.95;34.11;100757.90;1703286;83;21187;-68
2021/04/24 10:28:16;;;;;;;2.08;0.47;;;;;;;8.99;34.07;100763.30;1670656;83;21194;-70
2021/04/24 10:30:46;;;;;;;2.72;0.60;;;;;;;9.02;33.58;100774.42;1672644;84;21192;-75
2021/04/24 10:33:18;;;;;;;3.08;0.50;;;;;;;9.00;33.40;100767.13;1671831;83;21158;-70
2021/04/24 10:35:47;;;;;;;1.42;0.45;;;;;;;8.97;36.57;100776.52;1673675;84;21283;-74
2021/04/24 10:38:15;;;;;;;7.65;0.55;;;;;;;8.88;37.72;100774.53;1704868;84;21218;-74
2021/04/24 10:40:45;;;;;;;4.33;0.70;;;;;;;8.78;38.04;100781.33;1683714;84;21186;-70
2021/04/24 10:43:20;;;;;;;2.60;0.80;;;;;;;8.74;38.00;100784.15;1687138;82;21210;-69
2021/04/24 10:45:48;;;;;;;2.55;0.62;;;;;;;8.82;38.72;100784.11;1647377;85;21199;-71
2021/04/24 10:48:26;;;;;;;1.02;0.33;;;;;;;9.02;37.17;100770.48;1677204;84;21179;-71
2021/04/24 10:50:55;;;;;;;1.77;0.33;;;;;;;9.18;35.76;100827.20;1678768;83;21215;-73
2021/04/24 10:53:30;;;;;;;3.52;0.40;;;;;;;9.23;32.82;100773.45;1693107;84;21214;-72
2021/04/24 10:56:00;;;;;;;2.08;0.40;;;;;;;9.19;33.11;100786.41;1698236;84;21585;-67
2021/04/24 10:58:30;;;;;;;3.00;0.40;;;;;;;9.17;32.47;100790.10;1684444;84;21453;-71
2021/04/24 11:01:03;;;;;;;2.42;0.33;;;;;;;9.15;33.03;100790.20;1677295;84;21289;-71
2021/04/24 11:03:40;;;;;;;2.25;0.60;;;;;;;9.11;32.46;100786.95;1674071;83;21170;-74
2021/04/24 11:06:13;;;;;;;2.00;0.50;;;;;;;9.10;32.92;100794.92;1679623;84;21194;-69
2021/04/24 11:08:43;;;;;;;2.37;0.72;;;;;;;9.12;33.54;100796.97;1676122;84;21129;-72
2021/04/24 11:11:20;;;;;;;3.02;0.37;;;;;;;9.14;32.22;100789.81;1678207;84;21166;-66
2021/04/24 11:13:56;;;;;;;;;;;;;;;9.24;31.78;100798.75;1659509;84;21267;-60
2021/04/24 11:16:31;;;;;;;1.90;0.30;;;;;;;9.40;31.64;100802.98;1671811;84;20304;-74
2021/04/24 11:18:54;;;;;;;1.50;0.40;;;;;;;9.42;31.46;100784.84;1670234;84;21262;-67
2021/04/24 11:21:27;;;;;;;1.22;0.35;;;;;;;9.45;32.05;100774.62;1669960;84;21143;-70
2021/04/24 11:24:01;;;;;;;2.25;0.50;;;;;;;9.47;30.93;100810.33;1679190;84;21663;-66
2021/04/24 11:26:37;;;;;;;3.35;0.80;;;;;;;9.51;31.74;100796.50;1678590;84;21172;-72
2021/04/24 11:29:16;;;;;;;1.32;0.28;;;;;;;9.64;30.42;100792.56;1673372;84;21250;-70
2021/04/24 11:33:41;;;;;;;2.50;0.60;;;;;;;9.81;30.85;100769.04;1871286;74;22474;-71
2021/04/24 11:36:26;;;;;;;2.58;0.45;;;;;;;9.82;31.18;100780.76;1837951;77;21208;-71
2021/04/24 11:39:06;;;;;;;2.33;0.35;;;;;;;9.81;31.33;100788.27;1856082;75;21180;-69
2021/04/24 11:41:42;;;;;;;2.00;0.45;;;;;;;9.80;30.84;100788.38;1849072;76;21630;-72
2021/04/24 11:44:25;;;;;;;2.75;0.60;;;;;;;9.80;31.24;100780.03;1856826;77;21225;-70
2021/04/24 11:46:55;;;;;;;3.17;0.80;;;;;;;9.86;31.24;100785.33;1839506;77;21146;-68
2021/04/24 11:49:27;;;;;;;5.47;0.47;;;;;;;9.92;32.22;100766.95;1859009;75;21059;-68
2021/04/24 11:51:59;;;;;;;2.42;0.50;;;;;;;10.06;32.06;100768.13;1855498;75;21207;-72